Time;durP1;ratioP1;P1;durP2;ratioP2;P2;SDS_P1;SDS_P2;PMS_P1;PMS_P2;Temp;Humidity;BMP_temperature;BMP_pressure;BME280_temperature;BME280_humidity;BME280_pressure;Samples;Min_cycle;Max_cycle;Signal;HPM_P1;HPM_P2
2023/04/02 00:02:32;;;;;;;;;;;;;;;-144.99;85.58;52635.63;4698266;28;10000059;-70
2023/04/02 00:05:18;;;;;;;;;;;;;;;-144.99;85.49;52623.38;5009553;28;20252;-70
2023/04/02 00:07:49;;;;;;;;;;;;;;;-144.99;85.65;52656.00;5048845;28;19936;-71
2023/04/02 00:10:25;;;;;;;;;;;;;;;-144.99;85.69;52629.50;5048917;28;19937;-70
2023/04/02 00:13:02;;;;;;;;;;;;;;;-144.99;86.04;52619.31;5047681;28;20334;-69
2023/04/02 00:15:29;;;;;;;;;;;;;;;-144.99;85.89;52625.44;5048079;28;19992;-71
2023/04/02 00:17:56;;;;;;;;;;;;;;;-144.99;86.09;52633.59;5042933;28;20338;-72
2023/04/02 00:20:24;;;;;;;;;;;;;;;-144.99;86.21;52639.69;5048080;28;20390;-72
2023/04/02 00:22:51;;;;;;;;;;;;;;;-144.99;86.44;52637.66;5049314;28;19928;-72
2023/04/02 00:25:18;;;;;;;;;;;;;;;-144.99;86.49;52643.78;5045826;28;20411;-70
2023/04/02 00:27:45;;;;;;;;;;;;;;;-144.99;86.59;52639.69;5043427;28;19935;-72
2023/04/02 00:30:12;;;;;;;;;;;;;;;-144.99;86.52;52611.16;5049877;28;20448;-72
2023/04/02 00:32:39;;;;;;;;;;;;;;;-144.99;86.63;52582.63;5046293;28;19936;-71
2023/04/02 00:35:10;;;;;;;;;;;;;;;-144.99;86.84;52607.09;5048359;28;20015;-72
2023/04/02 00:37:41;;;;;;;;;;;;;;;-144.99;87.19;52639.69;5046759;28;19924;-73
2023/04/02 00:40:16;;;;;;;;;;;;;;;-144.99;87.04;52643.78;5045452;28;20012;-72
2023/04/02 00:42:43;;;;;;;;;;;;;;;-144.99;87.05;52631.53;5045208;28;19929;-72
2023/04/02 00:45:17;;;;;;;;;;;;;;;-144.99;87.03;52651.94;5045305;28;20310;-72
2023/04/02 00:47:44;;;;;;;;;;;;;;;-144.99;87.36;52643.78;5048943;28;20313;-72
2023/04/02 00:50:19;;;;;;;;;;;;;;;-144.99;87.84;52615.25;5051031;28;20211;-69
2023/04/02 00:52:48;;;;;;;;;;;;;;;-144.99;87.68;52619.31;5049328;28;19929;-71
2023/04/02 00:55:18;;;;;;;;;;;;;;;-144.99;87.89;52660.09;5046693;28;19978;-68
2023/04/02 00:57:45;;;;;;;;;;;;;;;-144.99;87.63;52647.84;5041181;28;20051;-70
2023/04/02 01:00:19;;;;;;;;;;;;;;;-144.99;87.92;52631.53;5049433;28;19970;-70
2023/04/02 01:03:01;;;;;;;;;;;;;;;-144.99;88.01;52668.22;5047337;28;19929;-67
2023/04/02 01:05:33;;;;;;;;;;;;;;;-144.99;88.27;52635.63;5036161;28;20012;-68
2023/04/02 01:08:04;;;;;;;;;;;;;;;-144.99;88.12;52647.84;5051245;28;19924;-71
2023/04/02 01:10:40;;;;;;;;;;;;;;;-144.99;88.09;52647.84;5049244;28;19971;-69
2023/04/02 01:13:11;;;;;;;;;;;;;;;-144.99;88.19;52647.84;5047466;28;19971;-69
2023/04/02 01:15:40;;;;;;;;;;;;;;;-144.99;88.00;52637.66;5051732;28;20154;-69
2023/04/02 01:18:18;;;;;;;;;;;;;;;-144.99;88.48;52643.78;5048390;28;19990;-69
2023/04/02 01:20:54;;;;;;;;;;;;;;;-144.99;88.49;52635.63;5044298;28;19940;-69
2023/04/02 01:23:25;;;;;;;;;;;;;;;-144.99;88.50;52680.47;5047306;28;20378;-69
2023/04/02 01:25:57;;;;;;;;;;;;;;;-144.99;88.58;52598.94;5050998;28;20297;-69
2023/04/02 01:28:28;;;;;;;;;;;;;;;-144.99;89.05;52617.28;5042545;28;19983;-68
2023/04/02 01:30:57;;;;;;;;;;;;;;;-144.99;88.99;52682.50;5042300;28;19940;-67
2023/04/02 01:33:24;;;;;;;;;;;;;;;-144.99;89.11;52639.69;5044919;28;19928;-68
2023/04/02 01:35:56;;;;;;;;;;;;;;;-144.99;89.25;52647.84;5049918;28;19964;-68
2023/04/02 01:38:27;;;;;;;;;;;;;;;-144.99;89.19;52586.69;5041869;28;19979;-69
2023/04/02 01:40:58;;;;;;;;;;;;;;;-144.99;89.67;52639.69;5042624;28;19949;-67
2023/04/02 01:43:28;;;;;;;;;;;;;;;-144.99;89.52;52641.72;5039341;28;19925;-68
2023/04/02 01:45:56;;;;;;;;;;;;;;;-144.99;89.47;52643.78;5033074;28;20483;-69
2023/04/02 01:48:26;;;;;;;;;;;;;;;-144.99;89.49;52603.00;5036498;28;19929;-70
2023/04/02 01:50:54;;;;;;;;;;;;;;;-144.99;89.63;52643.78;5048691;28;19994;-70
2023/04/02 01:53:22;;;;;;;;;;;;;;;-144.99;89.83;52639.69;5043205;28;19929;-70
2023/04/02 01:55:49;;;;;;;;;;;;;;;-144.99;89.88;52643.78;5046749;28;19998;-69
2023/04/02 01:58:19;;;;;;;;;;;;;;;-144.99;89.84;52631.53;5049039;28;19928;-69
2023/04/02 02:00:49;;;;;;;;;;;;;;;-144.99;90.00;52613.19;5050079;28;19960;-70
2023/04/02 02:03:19;;;;;;;;;;;;;;;-144.99;90.32;52619.31;5038694;28;19956;-75
2023/04/02 02:05:46;;;;;;;;;;;;;;;-144.99;90.24;52656.00;5043197;28;19978;-75
2023/04/02 02:08:20;;;;;;;;;;;;;;;-144.99;89.74;52647.84;5050786;28;19956;-75
2023/04/02 02:10:49;;;;;;;;;;;;;;;-144.99;88.96;52627.47;5042216;28;20344;-69
2023/04/02 02:13:16;;;;;;;;;;;;;;;-144.99;89.84;52647.84;5049112;28;19932;-67
2023/04/02 02:15:42;;;;;;;;;;;;;;;-144.99;90.23;52666.19;5047474;28;19986;-65
2023/04/02 02:18:11;;;;;;;;;;;;;;;-144.99;90.41;52639.69;5046785;28;20419;-65
2023/04/02 02:20:39;;;;;;;;;;;;;;;-144.99;90.46;52619.31;5048626;28;19924;-67
2023/04/02 02:23:05;;;;;;;;;;;;;;;-144.99;90.56;52631.53;5049251;28;19978;-67
2023/04/02 02:25:33;;;;;;;;;;;;;;;-144.99;90.45;52623.38;5046611;28;19925;-68
2023/04/02 02:28:02;;;;;;;;;;;;;;;-144.99;90.30;52631.53;5043123;28;19980;-67
2023/04/02 02:30:31;;;;;;;;;;;;;;;-144.99;90.41;52623.38;5049202;28;19925;-68
2023/04/02 02:33:01;;;;;;;;;;;;;;;-144.99;90.32;52629.50;5046004;28;19924;-69
2023/04/02 02:35:29;;;;;;;;;;;;;;;-144.99;90.41;52651.94;5044594;28;20287;-66
2023/04/02 02:38:02;;;;;;;;;;;;;;;-144.99;90.48;52629.50;5049641;28;19929;-69
2023/04/02 02:40:32;;;;;;;;;;;;;;;-144.99;90.67;52627.47;5052321;28;19925;-67
2023/04/02 02:43:01;;;;;;;;;;;;;;;-144.99;90.83;52656.00;5051980;28;20369;-68
2023/04/02 02:45:31;;;;;;;;;;;;;;;-144.99;90.83;52651.94;5042499;28;19979;-69
2023/04/02 02:47:59;;;;;;;;;;;;;;;-144.99;90.90;52651.94;5045576;28;19987;-68
2023/04/02 02:50:27;;;;;;;;;;;;;;;-144.99;91.07;52631.53;5049756;28;19924;-68
2023/04/02 02:52:54;;;;;;;;;;;;;;;-144.99;91.11;52633.59;5043091;28;19929;-69
2023/04/02 02:55:26;;;;;;;;;;;;;;;-144.99;91.22;52647.84;5044369;28;20049;-70
2023/04/02 02:57:53;;;;;;;;;;;;;;;-144.99;91.30;52611.16;5049548;28;20015;-70
2023/04/02 03:00:23;;;;;;;;;;;;;;;-144.99;91.12;52647.84;5044983;28;20342;-70
2023/04/02 03:02:51;;;;;;;;;;;;;;;-144.99;91.12;52623.38;5050001;28;19936;-72
2023/04/02 03:05:19;;;;;;;;;;;;;;;-144.99;91.30;52586.69;5062594;28;19932;-70
2023/04/02 03:07:47;;;;;;;;;;;;;;;-144.99;91.43;52664.16;5054753;28;19929;-67
2023/04/02 03:10:16;;;;;;;;;;;;;;;-144.99;91.69;52643.78;5052910;28;20294;-65
2023/04/02 03:12:48;;;;;;;;;;;;;;;-144.99;91.90;52658.03;5051540;28;19987;-66
2023/04/02 03:15:21;;;;;;;;;;;;;;;-144.99;92.06;52623.38;5050693;28;21438;-67
2023/04/02 03:17:50;;;;;;;;;;;;;;;-144.99;92.41;52645.81;5050598;28;20444;-67
2023/04/02 03:20:20;;;;;;;;;;;;;;;-144.99;92.35;52651.94;5051917;28;19928;-67
2023/04/02 03:22:51;;;;;;;;;;;;;;;-144.99;92.56;52598.94;5046059;28;20332;-70
2023/04/02 03:25:22;;;;;;;;;;;;;;;-144.99;92.67;52613.19;5050158;28;19963;-63
2023/04/02 03:27:52;;;;;;;;;;;;;;;-144.99;93.48;52658.03;5048997;28;19948;-67
2023/04/02 03:30:26;;;;;;;;;;;;;;;-144.99;93.14;52639.69;5052249;28;19994;-67
2023/04/02 03:32:54;;;;;;;;;;;;;;;-144.99;92.73;52635.63;5049224;28;19929;-66
2023/04/02 03:35:24;;;;;;;;;;;;;;;-144.99;92.72;52615.25;5047782;28;19935;-68
2023/04/02 03:37:54;;;;;;;;;;;;;;;-144.99;92.78;52647.84;5050033;28;19964;-68
2023/04/02 03:40:22;;;;;;;;;;;;;;;-144.99;93.46;52635.63;5049836;28;19966;-68
2023/04/02 03:42:52;;;;;;;;;;;;;;;-144.99;93.47;52639.69;5052754;28;19925;-69
2023/04/02 03:45:21;;;;;;;;;;;;;;;-144.99;94.22;52615.25;5040492;28;19928;-69
2023/04/02 03:47:52;;;;;;;;;;;;;;;-144.99;94.27;52627.47;5047883;28;20574;-69
2023/04/02 03:50:22;;;;;;;;;;;;;;;-144.99;94.58;52615.25;5047480;28;19933;-70
2023/04/02 03:52:49;;;;;;;;;;;;;;;-144.99;95.48;52598.94;5044303;28;19941;-69
2023/04/02 03:55:18;;;;;;;;;;;;;;;-144.99;96.31;52623.38;4348026;28;10021775;-69
2023/04/02 03:57:47;;;;;;;;;;;;;;;-144.99;95.89;52656.00;5039612;28;19933;-70
2023/04/02 04:00:19;;;;;;;;;;;;;;;-144.99;95.95;52621.34;5040706;28;20072;-72
2023/04/02 04:02:48;;;;;;;;;;;;;;;-144.99;95.76;52625.44;5042843;28;20306;-69
2023/04/02 04:05:23;;;;;;;;;;;;;;;-144.99;95.84;52649.88;5043406;28;19980;-67
2023/04/02 04:07:52;;;;;;;;;;;;;;;-144.99;95.71;52660.09;5042787;28;19928;-67
2023/04/02 04:10:20;;;;;;;;;;;;;;;-144.99;95.71;52592.81;5046064;28;20342;-67
2023/04/02 04:12:48;;;;;;;;;;;;;;;-144.99;95.36;52631.53;5042377;28;19925;-67
2023/04/02 04:15:17;;;;;;;;;;;;;;;-144.99;95.37;52623.38;5043126;28;20903;-67
2023/04/02 04:17:50;;;;;;;;;;;;;;;-144.99;95.02;52615.25;5045222;28;19987;-67
2023/04/02 04:20:20;;;;;;;;;;;;;;;-144.99;95.10;52603.00;5034746;28;19968;-67
2023/04/02 04:22:48;;;;;;;;;;;;;;;-144.99;94.58;52611.16;5038662;28;19936;-70
2023/04/02 04:25:21;;;;;;;;;;;;;;;-144.99;94.83;52635.63;5046734;28;19940;-69
2023/04/02 04:27:54;;;;;;;;;;;;;;;-144.99;94.83;52647.84;5044102;28;19973;-69
2023/04/02 04:30:24;;;;;;;;;;;;;;;-144.99;95.16;52625.44;5047415;28;19947;-69
2023/04/02 04:32:56;;;;;;;;;;;;;;;-144.99;94.85;52656.00;5046711;28;20262;-69
2023/04/02 04:35:25;;;;;;;;;;;;;;;-144.99;94.69;52619.31;5032035;28;19929;-69
2023/04/02 04:37:57;;;;;;;;;;;;;;;-144.99;94.55;52619.31;5047670;28;20341;-70
2023/04/02 04:40:24;;;;;;;;;;;;;;;-144.99;94.54;52592.81;5044128;28;19929;-69
2023/04/02 04:42:54;;;;;;;;;;;;;;;-144.99;94.38;52639.69;5047800;28;20450;-69
2023/04/02 04:45:30;;;;;;;;;;;;;;;-144.99;94.18;52615.25;5044632;28;19979;-68
2023/04/02 04:48:00;;;;;;;;;;;;;;;-144.99;94.32;52615.25;5045380;28;19929;-69
2023/04/02 04:50:30;;;;;;;;;;;;;;;-144.99;94.27;52607.09;5033500;28;20036;-67
2023/04/02 04:52:57;;;;;;;;;;;;;;;-144.99;94.15;52623.38;5038367;28;19924;-68
2023/04/02 04:55:27;;;;;;;;;;;;;;;-144.99;93.77;52641.72;5032026;28;20352;-70
2023/04/02 04:57:56;;;;;;;;;;;;;;;-144.99;93.53;52611.16;5034880;28;20646;-68
2023/04/02 05:00:25;;;;;;;;;;;;;;;-144.99;93.10;52590.78;5039507;28;20312;-68
2023/04/02 05:02:57;;;;;;;;;;;;;;;-144.99;92.67;52607.09;5047714;28;19996;-68
2023/04/02 05:05:28;;;;;;;;;;;;;;;-144.99;92.52;52611.16;5044709;28;20041;-69
2023/04/02 05:07:58;;;;;;;;;;;;;;;-144.99;92.14;52611.16;5046986;28;19925;-68
2023/04/02 05:10:29;;;;;;;;;;;;;;;-144.99;92.07;52619.31;5043030;28;20366;-68
2023/04/02 05:12:59;;;;;;;;;;;;;;;-144.99;91.77;52615.25;5047540;28;19936;-71
2023/04/02 05:15:28;;;;;;;;;;;;;;;-144.99;91.58;52617.28;5041374;28;20467;-68
2023/04/02 05:18:07;;;;;;;;;;;;;;;-144.99;91.51;52594.84;5040968;28;19980;-67
2023/04/02 05:20:35;;;;;;;;;;;;;;;-144.99;91.40;52598.94;5040432;28;19924;-67
2023/04/02 05:23:04;;;;;;;;;;;;;;;-144.99;91.02;52611.16;5046771;28;19960;-71
2023/04/02 05:25:31;;;;;;;;;;;;;;;-144.99;90.96;52623.38;5046315;28;19974;-72
2023/04/02 05:28:00;;;;;;;;;;;;;;;-144.99;90.82;52627.47;5042626;28;20271;-70
2023/04/02 05:30:40;;;;;;;;;;;;;;;-144.99;90.08;52594.84;5045754;28;19928;-70
2023/04/02 05:33:17;;;;;;;;;;;;;;;-144.99;89.58;52639.69;5047074;28;20433;-69
2023/04/02 05:35:47;;;;;;;;;;;;;;;-144.99;88.51;52639.69;5042314;28;19975;-69
2023/04/02 05:38:19;;;;;;;;;;;;;;;-144.99;88.43;52582.63;5046777;28;19929;-68
2023/04/02 05:40:47;;;;;;;;;;;;;;;-144.99;88.06;52615.25;5037440;28;20330;-68
2023/04/02 05:43:16;;;;;;;;;;;;;;;-144.99;87.62;52611.16;5045359;28;19982;-67
2023/04/02 05:45:45;;;;;;;;;;;;;;;-144.99;87.33;52586.69;5040396;28;19964;-69
2023/04/02 05:48:17;;;;;;;;;;;;;;;-144.99;86.79;52619.31;5043622;28;20476;-69
2023/04/02 05:50:45;;;;;;;;;;;;;;;-144.99;86.42;52609.13;5045113;28;19929;-67
2023/04/02 05:53:15;;;;;;;;;;;;;;;-144.99;86.00;52578.53;5046544;28;19924;-67
2023/04/02 05:55:45;;;;;;;;;;;;;;;-144.99;85.51;52635.63;5045713;28;20471;-67
2023/04/02 05:58:17;;;;;;;;;;;;;;;-144.99;85.12;52625.44;5045218;28;20029;-67
2023/04/02 06:00:50;;;;;;;;;;;;;;;-144.99;85.00;52578.53;5033727;28;20012;-67
2023/04/02 06:03:23;;;;;;;;;;;;;;;-144.99;84.06;52611.16;5037941;28;20011;-66
2023/04/02 06:05:51;;;;;;;;;;;;;;;-144.99;83.82;52615.25;5050484;28;20009;-67
2023/04/02 06:08:20;;;;;;;;;;;;;;;-144.99;83.26;52617.28;5046565;28;19982;-67
2023/04/02 06:10:49;;;;;;;;;;;;;;;-144.99;83.24;52603.00;5045290;28;19962;-66
2023/04/02 06:13:17;;;;;;;;;;;;;;;-144.99;82.80;52598.94;5042634;28;19972;-66
2023/04/02 06:15:44;;;;;;;;;;;;;;;-144.99;83.06;52613.19;5034743;28;20256;-67
2023/04/02 06:18:15;;;;;;;;;;;;;;;-144.99;82.39;52613.19;5038707;28;19925;-67
2023/04/02 06:20:43;;;;;;;;;;;;;;;-144.99;81.39;52552.03;5042976;28;19935;-67
2023/04/02 06:23:12;;;;;;;;;;;;;;;-144.99;81.12;52574.47;5045655;28;19952;-67
2023/04/02 06:25:40;;;;;;;;;;;;;;;-144.99;80.36;52574.47;5044534;28;19932;-68
2023/04/02 06:28:11;;;;;;;;;;;;;;;-144.99;80.21;52588.75;5036662;28;19952;-66
2023/04/02 06:30:38;;;;;;;;;;;;;;;-144.99;79.88;52619.31;5041545;28;19925;-67
2023/04/02 06:33:05;;;;;;;;;;;;;;;-144.99;79.76;52562.25;5044945;28;19968;-67
2023/04/02 06:35:39;;;;;;;;;;;;;;;-144.99;79.70;52578.53;5037481;28;19925;-66
2023/04/02 06:38:14;;;;;;;;;;;;;;;-144.99;79.85;52627.47;5035861;28;20369;-66
2023/04/02 06:40:42;;;;;;;;;;;;;;;-144.99;79.76;52586.69;5046721;28;19975;-66
2023/04/02 06:43:13;;;;;;;;;;;;;;;-144.99;79.64;52586.69;5047037;28;19994;-66
2023/04/02 06:45:42;;;;;;;;;;;;;;;-144.99;79.67;52574.47;5046971;28;19925;-67
2023/04/02 06:48:12;;;;;;;;;;;;;;;-144.99;79.39;52586.69;5041948;28;19972;-67
2023/04/02 06:50:43;;;;;;;;;;;;;;;-144.99;79.11;52607.09;5045220;28;20002;-66
2023/04/02 06:53:18;;;;;;;;;;;;;;;-144.99;78.58;52590.78;5045101;28;19929;-67
2023/04/02 06:55:46;;;;;;;;;;;;;;;-144.99;78.25;52611.16;5039224;28;19928;-66
2023/04/02 06:58:14;;;;;;;;;;;;;;;-144.99;79.33;52607.09;5043960;28;19975;-65
2023/04/02 07:00:41;;;;;;;;;;;;;;;-144.99;78.11;52558.16;5044502;28;20406;-66
2023/04/02 07:03:13;;;;;;;;;;;;;;;-144.99;77.57;52550.00;5043997;28;19972;-67
2023/04/02 07:05:40;;;;;;;;;;;;;;;-144.99;77.19;52580.59;5044948;28;19928;-67
2023/04/02 07:08:06;;;;;;;;;;;;;;;-144.99;76.85;52598.94;5044910;28;19964;-67
2023/04/02 07:10:35;;;;;;;;;;;;;;;-144.99;76.73;52582.63;5041902;28;19933;-66
2023/04/02 07:13:01;;;;;;;;;;;;;;;-144.99;76.31;52578.53;5035740;28;20160;-68
2023/04/02 07:15:28;;;;;;;;;;;;;;;-144.99;76.41;52570.38;5044403;28;19928;-69
2023/04/02 07:17:56;;;;;;;;;;;;;;;-144.99;75.53;52533.69;5040221;28;20333;-67
2023/04/02 07:20:25;;;;;;;;;;;;;;;-144.99;75.21;52545.94;5042350;28;20464;-66
2023/04/02 07:22:52;;;;;;;;;;;;;;;-144.99;74.33;52529.63;5040214;28;19939;-66
2023/04/02 07:25:18;;;;;;;;;;;;;;;-144.99;73.86;52509.25;5046201;28;20386;-66
2023/04/02 07:27:46;;;;;;;;;;;;;;;-144.99;73.37;52523.50;5042636;28;19929;-66
2023/04/02 07:30:13;;;;;;;;;;;;;;;-144.99;73.11;52537.78;5045471;28;20361;-65
2023/04/02 07:32:40;;;;;;;;;;;;;;;-144.99;72.51;52533.69;5045028;28;19928;-65
2023/04/02 07:35:08;;;;;;;;;;;;;;;-144.99;72.46;52521.47;5045070;28;19932;-65
2023/04/02 07:37:35;;;;;;;;;;;;;;;-144.99;72.13;52525.56;5040987;28;19929;-66
2023/04/02 07:40:05;;;;;;;;;;;;;;;-144.99;71.37;52501.09;5032477;28;19935;-65
2023/04/02 07:42:31;;;;;;;;;;;;;;;-144.99;71.48;52515.34;5041374;28;19932;-66
2023/04/02 07:44:59;;;;;;;;;;;;;;;-144.99;71.01;52521.47;5044264;28;20180;-64
2023/04/02 07:47:25;;;;;;;;;;;;;;;-144.99;69.97;52554.09;5046043;28;19972;-66
2023/04/02 07:49:53;;;;;;;;;;;;;;;-144.99;69.70;52541.84;5047118;28;20305;-68
2023/04/02 07:52:20;;;;;;;;;;;;;;;-144.99;69.52;52521.47;5042823;28;20152;-67
2023/04/02 07:54:46;;;;;;;;;;;;;;;-144.99;69.46;52529.63;5046903;28;19952;-68
2023/04/02 07:57:13;;;;;;;;;;;;;;;-144.99;69.39;52550.00;5034545;28;19939;-67
2023/04/02 07:59:40;;;;;;;;;;;;;;;-144.99;69.41;52513.31;5034383;28;19987;-65
2023/04/02 08:02:18;;;;;;;;;;;;;;;-144.99;69.21;52513.31;5033767;28;20086;-66
2023/04/02 08:04:44;;;;;;;;;;;;;;;-144.99;69.17;52529.63;5038812;28;19963;-67
2023/04/02 08:07:10;;;;;;;;;;;;;;;-144.99;69.61;52537.78;5040060;28;19964;-67
2023/04/02 08:09:37;;;;;;;;;;;;;;;-144.99;70.32;52529.63;5042473;28;19960;-66
2023/04/02 08:12:04;;;;;;;;;;;;;;;-144.99;69.65;52547.97;5044394;28;19995;-67
2023/04/02 08:14:30;;;;;;;;;;;;;;;-144.99;69.39;52509.25;5048178;28;19975;-69
2023/04/02 08:16:57;;;;;;;;;;;;;;;-144.99;69.46;52533.69;5047328;28;19963;-71
2023/04/02 08:19:25;;;;;;;;;;;;;;;-144.99;70.06;52552.03;5040529;28;20177;-70
2023/04/02 08:21:52;;;;;;;;;;;;;;;-144.99;70.17;52521.47;5046247;28;20150;-69
2023/04/02 08:24:19;;;;;;;;;;;;;;;-144.99;70.34;52517.41;5043983;28;20021;-71
2023/04/02 08:26:46;;;;;;;;;;;;;;;-144.99;69.75;52533.69;5039868;28;19928;-71
2023/04/02 08:29:13;;;;;;;;;;;;;;;-144.99;69.64;52541.84;4699175;28;10000046;-68
2023/04/02 08:31:39;;;;;;;;;;;;;;;-144.99;69.64;52545.94;5048058;28;19925;-68
2023/04/02 08:34:06;;;;;;;;;;;;;;;-144.99;69.15;52513.31;5047665;28;20234;-73
2023/04/02 08:36:35;;;;;;;;;;;;;;;-144.99;69.07;52511.28;5040647;28;19978;-69
2023/04/02 08:39:03;;;;;;;;;;;;;;;-144.99;68.93;52562.25;5050462;28;19987;-69
2023/04/02 08:41:36;;;;;;;;;;;;;;;-144.99;69.33;52521.47;5051343;28;19936;-69
2023/04/02 08:44:20;;;;;;;;;;;;;;;-144.99;69.30;52513.31;5050239;28;19940;-70
2023/04/02 08:46:49;;;;;;;;;;;;;;;-144.99;68.86;52517.41;5044410;28;19929;-68
2023/04/02 08:49:17;;;;;;;;;;;;;;;-144.99;68.04;52488.84;5047499;28;20018;-68
2023/04/02 08:51:46;;;;;;;;;;;;;;;-144.99;68.57;52507.19;5048707;28;20378;-66
2023/04/02 08:54:25;;;;;;;;;;;;;;;-144.99;68.92;52507.19;5043626;28;19977;-68
2023/04/02 08:56:54;;;;;;;;;;;;;;;-144.99;68.41;52537.78;5043003;28;19964;-68
2023/04/02 08:59:24;;;;;;;;;;;;;;;-144.99;69.59;52480.72;5047578;28;20331;-69
2023/04/02 09:01:55;;;;;;;;;;;;;;;-144.99;67.39;52517.41;5044226;28;19925;-67
2023/04/02 09:04:23;;;;;;;;;;;;;;;-144.99;67.14;52460.31;5049201;28;19948;-69
2023/04/02 09:06:53;;;;;;;;;;;;;;;-144.99;65.71;52478.66;5043931;28;19982;-68
2023/04/02 09:09:21;;;;;;;;;;;;;;;-144.99;66.61;52480.72;5066424;22;19925;-73
2023/04/02 09:11:52;;;;;;;;;;;;;;;-144.99;65.29;52472.56;5055928;28;19931;-73
2023/04/02 09:14:20;;;;;;;;;;;;;;;-144.99;64.52;52499.06;5052422;28;20271;-72
2023/04/02 09:16:48;;;;;;;;;;;;;;;-144.99;64.21;52517.41;5035757;28;19979;-73
2023/04/02 09:19:17;;;;;;;;;;;;;;;-144.99;64.67;52499.06;5056200;28;20405;-75
2023/04/02 09:21:45;;;;;;;;;;;;;;;-144.99;63.89;52501.09;5058013;28;19925;-73
2023/04/02 09:24:13;;;;;;;;;;;;;;;-144.99;63.32;52509.25;5043432;28;19925;-75
2023/04/02 09:26:40;;;;;;;;;;;;;;;-144.99;62.78;52480.72;5051982;28;20270;-74
2023/04/02 09:29:19;;;;;;;;;;;;;;;-144.99;62.94;52456.25;5044016;28;19925;-72
2023/04/02 09:31:48;;;;;;;;;;;;;;;-144.99;62.98;52488.84;5037375;28;19925;-74
2023/04/02 09:34:28;;;;;;;;;;;;;;;-144.99;62.78;52472.56;5039002;28;20076;-75
2023/04/02 09:36:55;;;;;;;;;;;;;;;-144.99;62.26;52435.88;5050772;28;19928;-73
2023/04/02 09:39:24;;;;;;;;;;;;;;;-144.99;61.95;52423.63;5036582;28;19929;-73
2023/04/02 09:41:51;;;;;;;;;;;;;;;-144.99;61.32;52433.81;5040530;28;19979;-74
2023/04/02 09:44:19;;;;;;;;;;;;;;;-144.99;61.07;52468.47;5039073;28;19925;-75
2023/04/02 09:46:54;;;;;;;;;;;;;;;-144.99;60.50;52456.25;5037489;28;19925;-73
2023/04/02 09:49:22;;;;;;;;;;;;;;;-144.99;60.22;52423.63;5042303;28;19929;-74
2023/04/02 09:52:06;;;;;;;;;;;;;;;-144.99;59.64;52415.47;5043099;28;19979;-73
2023/04/02 09:54:40;;;;;;;;;;;;;;;-144.99;59.14;52464.41;5041080;28;19983;-74
2023/04/02 09:57:06;;;;;;;;;;;;;;;-144.99;59.63;52454.22;5039181;28;20155;-66
2023/04/02 09:59:33;;;;;;;;;;;;;;;-144.99;60.03;52460.31;5043488;28;19996;-67
2023/04/02 10:02:02;;;;;;;;;;;;;;;-144.99;59.93;52429.75;5046856;28;19925;-67
2023/04/02 10:04:36;;;;;;;;;;;;;;;-144.99;60.18;52403.25;5039636;28;19929;-72
2023/04/02 10:07:05;;;;;;;;;;;;;;;-144.99;59.46;52401.22;5042185;28;19991;-73
2023/04/02 10:09:33;;;;;;;;;;;;;;;-144.99;58.52;52378.78;5040450;28;20318;-83
2023/04/02 10:12:02;;;;;;;;;;;;;;;-144.99;58.61;52362.50;5042882;28;19939;-80
2023/04/02 10:14:31;;;;;;;;;;;;;;;-144.99;58.65;52380.84;5038125;28;19979;-78
2023/04/02 10:16:59;;;;;;;;;;;;;;;-144.99;58.17;52411.41;5047032;28;19933;-78
2023/04/02 10:19:29;;;;;;;;;;;;;;;-144.99;57.48;52386.94;5046678;28;19929;-78
2023/04/02 10:21:56;;;;;;;;;;;;;;;-144.99;57.10;52378.78;5033335;28;19929;-77
2023/04/02 10:24:23;;;;;;;;;;;;;;;-144.99;57.12;52338.03;5043295;28;19925;-78
2023/04/02 10:26:56;;;;;;;;;;;;;;;-144.99;56.54;52327.84;5040585;28;19928;-77
2023/04/02 10:29:43;;;;;;;;;;;;;;;-144.99;56.54;52342.09;5048490;28;20298;-78
2023/04/02 10:32:13;;;;;;;;;;;;;;;-144.99;56.72;52338.03;5047362;28;19929;-75
2023/04/02 10:34:43;;;;;;;;;;;;;;;-144.99;56.79;52297.25;5047131;28;19925;-75
2023/04/02 10:37:25;;;;;;;;;;;;;;;-144.99;55.62;52285.03;5050157;28;20023;-75
2023/04/02 10:39:55;;;;;;;;;;;;;;;-144.99;55.03;52276.88;5048415;28;19932;-74
2023/04/02 10:42:26;;;;;;;;;;;;;;;-144.99;55.04;52285.03;5050226;28;19994;-74
2023/04/02 10:44:55;;;;;;;;;;;;;;;-144.99;55.25;52248.34;5054527;28;19928;-74
2023/04/02 10:47:30;;;;;;;;;;;;;;;-144.99;54.54;52223.88;5051595;28;19984;-73
2023/04/02 10:50:05;;;;;;;;;;;;;;;-144.99;54.70;52219.81;5057002;28;19982;-73
2023/04/02 10:52:35;;;;;;;;;;;;;;;-144.99;55.19;52166.81;5056194;28;19925;-73
2023/04/02 10:55:04;;;;;;;;;;;;;;;-144.99;53.06;52219.81;5044003;28;19982;-74
2023/04/02 10:57:35;;;;;;;;;;;;;;;-144.99;54.06;52187.19;5044150;28;20224;-73
2023/04/02 11:00:06;;;;;;;;;;;;;;;-144.99;54.08;52193.31;5058622;28;19998;-72
2023/04/02 11:02:37;;;;;;;;;;;;;;;-144.99;54.79;52146.44;5045326;28;19925;-73
2023/04/02 11:05:10;;;;;;;;;;;;;;;-144.99;54.14;52174.97;5056213;28;19925;-73
2023/04/02 11:07:42;;;;;;;;;;;;;;;-144.99;53.69;52321.72;5055810;28;19932;-73
2023/04/02 11:10:14;;;;;;;;;;;;;;;-144.99;54.24;52170.91;5048825;28;19929;-72
2023/04/02 11:12:43;;;;;;;;;;;;;;;-144.99;53.91;52195.34;5047711;28;19924;-71
2023/04/02 11:15:15;;;;;;;;;;;;;;;-144.99;53.21;52154.59;5051320;28;20002;-72
2023/04/02 11:17:43;;;;;;;;;;;;;;;-144.99;54.01;52152.56;5053708;28;19928;-71
2023/04/02 11:20:28;;;;;;;;;;;;;;;-144.99;53.77;52187.19;5050590;28;19929;-66
2023/04/02 11:23:04;;;;;;;;;;;;;;;-144.99;53.94;52146.44;5042753;28;19996;-69
2023/04/02 11:25:31;;;;;;;;;;;;;;;-144.99;54.11;52138.28;5042984;28;20010;-77
2023/04/02 11:28:12;;;;;;;;;;;;;;;-144.99;53.92;52138.28;5046423;28;20014;-78
2023/04/02 11:30:39;;;;;;;;;;;;;;;-144.99;53.68;52146.44;5036687;28;19993;-76
2023/04/02 11:33:20;;;;;;;;;;;;;;;-144.99;52.94;52107.72;5039066;28;20454;-77
2023/04/02 11:35:48;;;;;;;;;;;;;;;-144.99;53.28;52174.97;5038396;28;19925;-77
2023/04/02 11:38:45;;;;;;;;;;;;;;;-144.99;53.87;52154.59;5044390;28;20306;-77
2023/04/02 11:41:11;;;;;;;;;;;;;;;-144.99;53.80;52215.75;5019372;28;20343;-78
2023/04/02 11:43:48;;;;;;;;;;;;;;;-144.99;53.97;52179.06;5051051;28;19925;-76
2023/04/02 11:46:35;;;;;;;;;;;;;;;-144.99;53.92;52158.66;5051127;28;19925;-76
2023/04/02 11:49:16;;;;;;;;;;;;;;;-144.99;53.54;52227.97;5038276;28;19969;-75
2023/04/02 11:51:50;;;;;;;;;;;;;;;-144.99;53.90;52266.69;5045795;28;19932;-76
2023/04/02 11:54:23;;;;;;;;;;;;;;;-144.99;53.58;52154.59;5046885;28;20333;-76
2023/04/02 11:56:54;;;;;;;;;;;;;;;-144.99;54.15;52191.28;5043028;28;19925;-76
2023/04/02 11:59:24;;;;;;;;;;;;;;;-144.99;54.03;52199.44;4355157;28;10000636;-76
2023/04/02 12:01:57;;;;;;;;;;;;;;;-144.99;53.33;52187.19;5047214;28;19943;-74
2023/04/02 12:04:47;;;;;;;;;;;;;;;-144.99;53.61;52195.34;5048979;28;19929;-76
2023/04/02 12:07:33;;;;;;;;;;;;;;;-144.99;54.21;52146.44;5047182;28;19936;-76
2023/04/02 12:10:03;;;;;;;;;;;;;;;-144.99;53.71;52285.03;5049511;28;19943;-76
2023/04/02 12:12:34;;;;;;;;;;;;;;;-144.99;53.76;52329.88;5056452;28;19928;-74
2023/04/02 12:15:00;;;;;;;;;;;;;;;-144.99;54.16;52154.59;5052820;28;19983;-75
2023/04/02 12:17:30;;;;;;;;;;;;;;;-144.99;54.18;52338.03;5058763;28;20311;-75
2023/04/02 12:19:59;;;;;;;;;;;;;;;-144.99;53.77;52358.41;5052220;28;19994;-75
2023/04/02 12:22:29;;;;;;;;;;;;;;;-144.99;53.90;52378.78;5052657;28;20308;-75
2023/04/02 12:24:58;;;;;;;;;;;;;;;-144.99;55.06;52388.97;5058296;28;19924;-76
2023/04/02 12:27:26;;;;;;;;;;;;;;;-144.99;55.48;52242.22;5055571;28;19995;-76
2023/04/02 12:29:53;;;;;;;;;;;;;;;-144.99;56.65;52350.25;5054769;28;20324;-75
2023/04/02 12:32:22;;;;;;;;;;;;;;;-144.99;56.11;52215.75;5043843;28;20031;-74
2023/04/02 12:34:49;;;;;;;;;;;;;;;-144.99;55.98;52238.16;5042014;28;19929;-76
2023/04/02 12:37:23;;;;;;;;;;;;;;;-144.99;55.35;52232.03;5044814;28;19960;-74
2023/04/02 12:39:55;;;;;;;;;;;;;;;-144.99;55.23;52223.88;5053068;28;19952;-75
2023/04/02 12:42:29;;;;;;;;;;;;;;;-144.99;55.52;52211.66;5057221;28;19933;-75